Logo AVAMET
Benvolgut visitant, si us plau, ingressa Recuperar contrasenya

Vilafamés Ajuntament

Dades diàries. Acumulats / Últims 30 dies disponibles

Data Temperatura (°C) Humitat rel. (%) Pressió rel. (hPa) Vent (km/h) Precipitació
Mínima Mitjana Màxima Amplitud
tèrmica
Mínima Mitjana Màxima Mínima Mitjana Màxima Predom. Mitjana Ràfega
màxima
Total
(mm)
Índex-n
Mínima Mitjana Màxima Mínima Mitjana Màxima n
0 a 1
P0 max
mm 5'
Dades mensuals acumulades fins l'últim dia disponible
11/2019 7,4 11,7 16,6 15,5 14,6 19,4 25,2 17,8 30 49 78 990 1.003 1.014   16,5 90,1 0,0
Dades anuals acumulades fins l'últim dia disponible
2019 2,6 13,2 25,2 17,6 8,8 22,4 37,7 35,1 12 60 98 983 1.010 1.030   7,5 122,3 262,8
Últims 30 dies disponibles
11-11-2019 8,9     12,3     15,8 6,9 34 46 54 1.004 1.006 1.008 NW 19,0 70,8 0,0
10-11-2019 9,1     11,1     14,6 5,5 38 47 62 1.003 1.005 1.007 NW 19,5 90,1 0,0
09-11-2019 10,9     13,3     16,5 5,6 38 45 52 1.005 1.009 1.011 WNW 15,4 64,4 0,0
08-11-2019 7,4     11,9     15,6 8,2 30 41 50 1.001 1.004 1.008 NW 16,6 70,8 0,0
07-11-2019 7,6     13,8     19,8 12,2 34 53 69 1.000 1.002 1.005 ESE 5,3 43,5 0,0
06-11-2019 13,1     14,9     18,3 5,2 35 44 50 1.004 1.005 1.006 NW 16,3 61,2 0,0
05-11-2019 12,6     15,7     18,5 5,9 34 47 66 997 1.000 1.004 W 18,8 77,2 0,0
04-11-2019 12,9     18,8     22,9 10,0 37 49 58 997 1.000 1.002 WSW 25,1 70,8 0,0
03-11-2019 15,0     18,4     20,9 5,9 30 45 65 990 995 1.002 WSW 23,3 90,1 0,0
02-11-2019 16,6     20,7     25,2 8,6 39 56 74 995 1.000 1.005 SW 16,1 57,9 0,0
01-11-2019 14,3     20,1     24,9 10,6 50 63 78 1.005 1.010 1.014 SW 6,3 38,6 0,0
31-10-2019 15,7     19,9     23,7 8,0 SE 4,5 51,5 0,0
30-10-2019 14,7     19,3     24,3 9,6 48 66 93 1.013 1.013 1.015 SW 3,4 20,9 0,0
29-10-2019 12,3     17,2     24,6 12,3 55 78 93 1.009 1.010 1.013 E 2,4 20,9 0,0
28-10-2019 12,8     15,5     20,1 7,3 72 88 95 1.010 1.011 1.014 E 1,3 25,7 0,2
27-10-2019 12,1     16,3     21,5 9,4 65 83 96 1.014 1.015 1.016 ESE 2,3 19,3 0,0
26-10-2019 12,4     16,2     20,9 8,5 61 76 94 1.014 1.015 1.016 E 2,1 20,9 0,0
25-10-2019 11,8     17,5     22,3 10,5 44 58 75 1.014 1.015 1.016 WSW 4,7 20,9 0,0
24-10-2019 11,1     15,1     19,4 8,3 46 57 70 1.004 1.009 1.015 SW 6,8 30,6 0,0
23-10-2019 8,9     13,3     17,8 8,9 46 73 96 998 1.000 1.004 SW 6,8 45,1 0,2
22-10-2019 11,0     12,4     13,8 2,8 74 84 93 999 1.005 1.012 SW 7,4 35,4 20,2
21-10-2019 11,8     14,1     17,5 5,7 52 64 79 1.007 1.010 1.012 SW 5,3 32,2 0,0
20-10-2019 14,2     16,8     18,9 4,7 41 64 93 998 1.001 1.007 SW 13,2 51,5 1,2
19-10-2019 14,1     19,2     24,7 10,6 40 68 87 1.000 1.002 1.006 SW 11,6 62,8 0,0
18-10-2019 14,3     19,6     25,9 11,6 49 65 84 1.006 1.008 1.011 SE 2,6 25,7 0,0
17-10-2019 13,2     18,3     23,8 10,6 39 55 69 1.009 1.010 1.011 ESE 3,1 20,9 0,0
16-10-2019 12,8     17,1     22,0 9,2 31 51 71 1.010 1.012 1.014 SE 3,7 22,5 0,0
15-10-2019 13,2     16,9     20,8 7,6 29 46 79 1.006 1.010 1.014 WSW 11,9 51,5 0,0
14-10-2019 16,3     19,4     23,1 6,8 62 85 97 1.004 1.007 1.011 SE 3,5 25,7 0,0
13-10-2019 16,8     20,3     25,0 8,2 65 85 96 1.009 1.011 1.012 SE 2,7 29,0 0,0
Últims 13 mesos disponibles
10/2019 8,9 14,4 18,7 18,4 13,8 22,9 29,1 20,2 45 68 88 1.000 1.010 1.015 SE 5,2 74,0 22,0
09/2019 13,1 17,7 21,0 21,6 19,2 26,1 30,7 17,6 47 69 86 1.003 1.011 1.020 E 6,1 69,2 58,2
08/2019 16,2 19,9 25,2 24,6 24,1 29,6 36,2 20,0 46 67 82 1.004 1.009 1.014 SE 5,1 114,3 25,0
07/2019 18,3 20,6 23,0 25,5 25,9 30,8 36,3 18,0 37 56 77 999 1.007 1.014 SE 5,4 72,4 13,0
06/2019 12,0 16,3 22,3 21,6 19,1 26,9 37,7 25,7 26 55 77 1.001 1.009 1.015 ESE 6,2 69,2 0,0
05/2019 7,8 12,3 16,1 16,8 15,2 21,7 27,4 19,6 42 62 85 998 1.009 1.018 ESE 7,4 77,2 23,2
04/2019 6,2 9,7 13,3 13,3 12,8 17,6 25,6 19,4 41 63 93 992 1.007 1.019 ESE 10,8 72,4 99,4
03/2019 5,7 8,6 13,8 13,5 10,4 18,7 25,4 19,7 32 51 88 1.003 1.016 1.023 ESE 7,0 86,9 18,8
02/2019 2,9 6,4 12,4 11,0 8,8 16,5 24,8 21,9 35 59 82 986 1.018 1.028 ESE 7,4 122,3 0,6
01/2019 2,6 6,4 12,1 10,2 8,9 14,2 19,5 16,9 21 52 81 994 1.012 1.025 NNW 11,3 117,5 2,6
12/2018 3,4 8,0 11,6 12,3 11,2 17,0 23,5 20,1 38 68 90 1.001 1.018 1.024 ESE 3,4 88,5 7,6
11/2018 6,3 9,6 14,1 13,2 11,8 16,3 21,2 14,9 44 72 97 995 1.009 1.018 ENE 5,1 101,4 131,4
10/2018 6,9 13,3 17,6 16,8 10,6 20,9 27,1 20,2 45 72 98 992 1.007 1.019 ESE 6,9 95,0 228,2
Tots els anys disponibles
2018 0,0 12,7 26,1 16,8 5,3 21,2 34,6 34,6 ESE 7,1 104,6 672,2
2017 -0,3 12,3 23,6 16,8 6,3 21,7 36,0 36,3 ESE 7,0 122,3 250,8
2016
2014
Temperatura (°C)
Humitat relativa (%)
Velocitat del vent i ràfega màxima (km/h)
Direcció del vent (°)
Pressió (hPa)
Precipitació (mm)
Nota sobre les dades: s'avisa a l'usuari de la provisionalitat i no oficialitat d'aquestes dades
Logo AVAMET blanc
Web allotjada a Sollutia
Llicència de Creative CommonsLa web d'AVAMET i els seus continguts estan subjectes a una llicència de
Reconeixement - No Comercial - Compartir igual
Últimes estacions: Xàbia - Alt de la Granadella (Soci), Villena - Sierra de Salinas (Soci), Sueca - Centre (Inforatge), Xàbia - La Plana (Soci), Banyeres de Mariola - Molí Sol (Soci), Villena - Villa Ventín (Soci), Benissa - Convent (Soci), - - -